BAW2239 EGKK-TTPP
Flight info
| Callsign | BAW2239 |
|---|---|
| Flight time | N/A |
| Altitude | 36000 |
| Route | IMVUR1Z IMVUR N63 SAM N19 ADKIK DCT MOPAT DCT MALOT/M083F360 DCT 5230N02000W 50N030W 44N040W/M083F380 38N045W 32N050W 25N055W/M083F400 DCT CITRS/N0478F400 DCT 16N060W DCT FOF UA324 BNE DCT |
| Aircraft | B772/H-SDE1E3FGHIJ3J5J6M1M2P2RWXYZ/LB1D1 |
Departure
| Time | 2026-04-14 10:10 |
|---|---|
| Airport | London Gatwick Airport (EGKK) |
Arrival
| Time | N/A |
|---|---|
| Airport | Piarco International Airport (TTPP) |
| Time | Latitude | Longitude | Altitude | Speed | Heading |
|---|---|---|---|---|---|
| 2026-04-14 09:34 | 51.15539 | -0.17180 | 214 ft | 0 kts | 135° |
| 2026-04-14 09:45 | 51.15539 | -0.17181 | 206 ft | 0 kts | 135° |
| 2026-04-14 09:48 | 51.15540 | -0.17181 | 206 ft | 0 kts | 135° |
| 2026-04-14 09:58 | 51.15550 | -0.17197 | 217 ft | 4 kts | 135° |
| 2026-04-14 09:58 | 51.15569 | -0.17227 | 214 ft | 4 kts | 136° |
| 2026-04-14 09:58 | 51.15582 | -0.17246 | 219 ft | 4 kts | 145° |
| 2026-04-14 09:59 | 51.15602 | -0.17262 | 216 ft | 4 kts | 179° |
| 2026-04-14 09:59 | 51.15610 | -0.17267 | 219 ft | 4 kts | 241° |
| 2026-04-14 09:59 | 51.15615 | -0.17243 | 221 ft | 4 kts | 256° |
| 2026-04-14 09:59 | 51.15619 | -0.17217 | 211 ft | 0 kts | 256° |
| 2026-04-14 10:02 | 51.15615 | -0.17243 | 213 ft | 8 kts | 256° |
| 2026-04-14 10:02 | 51.15593 | -0.17374 | 214 ft | 13 kts | 247° |
| 2026-04-14 10:02 | 51.15545 | -0.17495 | 213 ft | 13 kts | 245° |
| 2026-04-14 10:03 | 51.15520 | -0.17635 | 216 ft | 13 kts | 257° |
| 2026-04-14 10:03 | 51.15500 | -0.17777 | 212 ft | 13 kts | 257° |
| 2026-04-14 10:03 | 51.15479 | -0.17933 | 213 ft | 16 kts | 257° |
| 2026-04-14 10:03 | 51.15454 | -0.18113 | 213 ft | 17 kts | 258° |
| 2026-04-14 10:04 | 51.15419 | -0.18265 | 211 ft | 12 kts | 214° |
| 2026-04-14 10:04 | 51.15340 | -0.18260 | 215 ft | 12 kts | 168° |
| 2026-04-14 10:04 | 51.15259 | -0.18233 | 212 ft | 12 kts | 168° |
| 2026-04-14 10:04 | 51.15170 | -0.18201 | 216 ft | 13 kts | 167° |
| 2026-04-14 10:05 | 51.15103 | -0.18265 | 215 ft | 13 kts | 250° |
| 2026-04-14 10:05 | 51.15077 | -0.18439 | 215 ft | 19 kts | 258° |
| 2026-04-14 10:05 | 51.15044 | -0.18684 | 211 ft | 25 kts | 258° |
| 2026-04-14 10:05 | 51.15006 | -0.18953 | 211 ft | 25 kts | 257° |
| 2026-04-14 10:06 | 51.14969 | -0.19223 | 213 ft | 25 kts | 257° |
| 2026-04-14 10:06 | 51.14932 | -0.19492 | 214 ft | 25 kts | 258° |
| 2026-04-14 10:06 | 51.14896 | -0.19762 | 217 ft | 25 kts | 258° |
| 2026-04-14 10:06 | 51.14859 | -0.20030 | 211 ft | 25 kts | 257° |
| 2026-04-14 10:07 | 51.14821 | -0.20299 | 211 ft | 25 kts | 257° |
| 2026-04-14 10:07 | 51.14784 | -0.20568 | 215 ft | 25 kts | 258° |
| 2026-04-14 10:07 | 51.14747 | -0.20835 | 212 ft | 25 kts | 258° |
| 2026-04-14 10:07 | 51.14718 | -0.21052 | 213 ft | 13 kts | 257° |
| 2026-04-14 10:08 | 51.14706 | -0.21136 | 207 ft | 5 kts | 257° |
| 2026-04-14 10:08 | 51.14699 | -0.21190 | 210 ft | 5 kts | 258° |
| 2026-04-14 10:08 | 51.14691 | -0.21244 | 212 ft | 5 kts | 258° |
| 2026-04-14 10:08 | 51.14670 | -0.21314 | 213 ft | 11 kts | 222° |
| 2026-04-14 10:09 | 51.14596 | -0.21320 | 210 ft | 11 kts | 166° |
| 2026-04-14 10:09 | 51.14530 | -0.21244 | 217 ft | 12 kts | 122° |
| 2026-04-14 10:09 | 51.14530 | -0.21087 | 215 ft | 23 kts | 78° |
| 2026-04-14 10:09 | 51.14601 | -0.20579 | 212 ft | 82 kts | 78° |
| 2026-04-14 10:10 | 51.14776 | -0.19292 | 209 ft | 153 kts | 78° |
| 2026-04-14 10:10 | 51.15044 | -0.17430 | 468 ft | 185 kts | 80° |
| 2026-04-14 10:10 | 51.15326 | -0.15387 | 1220 ft | 192 kts | 81° |
| 2026-04-14 10:10 | 51.15614 | -0.13211 | 1795 ft | 213 kts | 82° |
| 2026-04-14 10:11 | 51.15927 | -0.10847 | 2267 ft | 223 kts | 82° |
| 2026-04-14 10:11 | 51.16258 | -0.08403 | 2828 ft | 228 kts | 79° |
| 2026-04-14 10:11 | 51.17019 | -0.06121 | 2998 ft | 245 kts | 46° |
| 2026-04-14 10:11 | 51.18539 | -0.04984 | 3126 ft | 246 kts | 4° |
| 2026-04-14 10:12 | 51.20228 | -0.05435 | 3305 ft | 248 kts | 335° |
| 2026-04-14 10:12 | 51.21607 | -0.07007 | 3861 ft | 247 kts | 306° |
| 2026-04-14 10:12 | 51.22416 | -0.09468 | 4216 ft | 256 kts | 281° |
| 2026-04-14 10:12 | 51.22553 | -0.12276 | 4796 ft | 255 kts | 259° |
| 2026-04-14 10:13 | 51.22244 | -0.15024 | 5426 ft | 256 kts | 256° |
| 2026-04-14 10:13 | 51.21899 | -0.17821 | 6138 ft | 258 kts | 256° |
| 2026-04-14 10:13 | 51.21550 | -0.20647 | 6823 ft | 260 kts | 257° |
| 2026-04-14 10:13 | 51.21208 | -0.23488 | 7479 ft | 262 kts | 257° |
| 2026-04-14 10:14 | 51.20870 | -0.26355 | 8116 ft | 264 kts | 258° |
| 2026-04-14 10:14 | 51.20531 | -0.29252 | 8701 ft | 268 kts | 258° |
| 2026-04-14 10:14 | 51.20188 | -0.32189 | 9329 ft | 270 kts | 259° |
| 2026-04-14 10:14 | 51.19840 | -0.35139 | 9917 ft | 273 kts | 258° |
| 2026-04-14 10:15 | 51.19459 | -0.38126 | 10402 ft | 279 kts | 258° |
| 2026-04-14 10:15 | 51.19051 | -0.41255 | 10539 ft | 298 kts | 258° |
| 2026-04-14 10:15 | 51.18619 | -0.44584 | 10685 ft | 317 kts | 258° |
| 2026-04-14 10:15 | 51.18160 | -0.48119 | 10918 ft | 334 kts | 258° |
| 2026-04-14 10:16 | 51.17680 | -0.51802 | 11400 ft | 344 kts | 258° |
| 2026-04-14 10:16 | 51.17063 | -0.55451 | 12005 ft | 348 kts | 250° |
| 2026-04-14 10:16 | 51.16147 | -0.59042 | 12779 ft | 352 kts | 246° |
| 2026-04-14 10:16 | 51.15136 | -0.62608 | 13595 ft | 355 kts | 245° |
| 2026-04-14 10:17 | 51.14113 | -0.66199 | 14315 ft | 358 kts | 246° |
| 2026-04-14 10:17 | 51.13092 | -0.69844 | 14981 ft | 362 kts | 246° |
| 2026-04-14 10:17 | 51.12077 | -0.73536 | 15638 ft | 366 kts | 247° |
| 2026-04-14 10:17 | 51.11063 | -0.77267 | 16296 ft | 369 kts | 247° |
| 2026-04-14 10:18 | 51.09021 | -0.84841 | 17562 ft | 376 kts | 248° |
| 2026-04-14 10:18 | 51.07986 | -0.88686 | 18145 ft | 380 kts | 248° |
| 2026-04-14 10:18 | 51.06950 | -0.92518 | 18672 ft | 384 kts | 248° |
| 2026-04-14 10:19 | 51.05889 | -0.96439 | 19160 ft | 388 kts | 248° |
| 2026-04-14 10:19 | 51.04819 | -1.00384 | 19693 ft | 390 kts | 248° |
| 2026-04-14 10:19 | 51.03740 | -1.04352 | 20207 ft | 392 kts | 248° |
| 2026-04-14 10:19 | 51.02655 | -1.08342 | 20722 ft | 395 kts | 249° |
| 2026-04-14 10:20 | 51.01564 | -1.12348 | 21196 ft | 398 kts | 249° |
| 2026-04-14 10:20 | 51.00460 | -1.16398 | 21662 ft | 401 kts | 249° |
| 2026-04-14 10:20 | 50.99351 | -1.20460 | 22173 ft | 403 kts | 249° |
| 2026-04-14 10:20 | 50.98231 | -1.24556 | 22651 ft | 406 kts | 249° |
| 2026-04-14 10:21 | 50.97099 | -1.28681 | 23109 ft | 409 kts | 249° |
| 2026-04-14 10:21 | 50.96000 | -1.32853 | 23573 ft | 411 kts | 253° |
| 2026-04-14 10:21 | 50.95140 | -1.37117 | 23973 ft | 411 kts | 258° |
| 2026-04-14 10:21 | 50.94542 | -1.41603 | 24400 ft | 411 kts | 262° |
| 2026-04-14 10:22 | 50.94001 | -1.45998 | 24799 ft | 413 kts | 262° |
| 2026-04-14 10:22 | 50.93447 | -1.50468 | 25190 ft | 415 kts | 262° |
| 2026-04-14 10:22 | 50.92882 | -1.54964 | 25548 ft | 417 kts | 262° |
| 2026-04-14 10:22 | 50.92306 | -1.59487 | 25910 ft | 420 kts | 262° |
| 2026-04-14 10:23 | 50.91722 | -1.64039 | 26278 ft | 422 kts | 262° |
| 2026-04-14 10:23 | 50.91132 | -1.68606 | 26660 ft | 424 kts | 262° |
| 2026-04-14 10:23 | 50.90538 | -1.73186 | 27057 ft | 426 kts | 262° |
| 2026-04-14 10:23 | 50.89938 | -1.77789 | 27449 ft | 427 kts | 262° |
| 2026-04-14 10:24 | 50.89334 | -1.82409 | 27787 ft | 430 kts | 262° |
| 2026-04-14 10:24 | 50.88733 | -1.87005 | 28094 ft | 433 kts | 263° |
| 2026-04-14 10:24 | 50.88119 | -1.91683 | 28433 ft | 435 kts | 263° |
| 2026-04-14 10:24 | 50.87500 | -1.96383 | 28816 ft | 437 kts | 263° |
| 2026-04-14 10:25 | 50.86877 | -2.01093 | 29136 ft | 439 kts | 263° |
| 2026-04-14 10:25 | 50.86249 | -2.05837 | 29424 ft | 442 kts | 263° |
| 2026-04-14 10:25 | 50.85619 | -2.10601 | 29712 ft | 443 kts | 263° |
| 2026-04-14 10:25 | 50.84984 | -2.15387 | 30016 ft | 445 kts | 263° |
| 2026-04-14 10:26 | 50.84424 | -2.20143 | 30224 ft | 444 kts | 268° |
| 2026-04-14 10:26 | 50.84293 | -2.24995 | 30397 ft | 441 kts | 276° |
| 2026-04-14 10:26 | 50.84522 | -2.29828 | 30586 ft | 440 kts | 281° |
| 2026-04-14 10:26 | 50.85053 | -2.34567 | 30917 ft | 435 kts | 287° |
| 2026-04-14 10:27 | 50.85788 | -2.39204 | 31245 ft | 434 kts | 287° |
| 2026-04-14 10:27 | 50.86536 | -2.43818 | 31566 ft | 432 kts | 287° |
| 2026-04-14 10:27 | 50.87283 | -2.48427 | 31872 ft | 432 kts | 287° |
| 2026-04-14 10:27 | 50.88023 | -2.53029 | 32174 ft | 431 kts | 287° |
| 2026-04-14 10:28 | 50.88756 | -2.57630 | 32462 ft | 431 kts | 287° |
| 2026-04-14 10:28 | 50.89474 | -2.62174 | 32752 ft | 431 kts | 287° |
| 2026-04-14 10:28 | 50.90195 | -2.66774 | 33069 ft | 430 kts | 287° |
| 2026-04-14 10:28 | 50.90911 | -2.71371 | 33390 ft | 429 kts | 287° |
| 2026-04-14 10:29 | 50.91622 | -2.75958 | 33689 ft | 429 kts | 287° |
| 2026-04-14 10:29 | 50.92331 | -2.80547 | 33993 ft | 429 kts | 287° |
| 2026-04-14 10:29 | 50.93037 | -2.85131 | 34240 ft | 428 kts | 286° |
| 2026-04-14 10:29 | 50.93741 | -2.89714 | 34471 ft | 428 kts | 286° |
| 2026-04-14 10:30 | 50.94445 | -2.94305 | 34646 ft | 428 kts | 286° |
| 2026-04-14 10:30 | 50.95146 | -2.98891 | 34870 ft | 428 kts | 286° |
| 2026-04-14 10:30 | 50.95836 | -3.03422 | 35107 ft | 428 kts | 286° |
| 2026-04-14 10:30 | 50.96533 | -3.08005 | 35357 ft | 427 kts | 286° |
| 2026-04-14 10:31 | 50.97227 | -3.12587 | 35545 ft | 428 kts | 286° |
| 2026-04-14 10:31 | 50.97922 | -3.17182 | 35741 ft | 428 kts | 285° |
| 2026-04-14 10:31 | 50.98614 | -3.21779 | 35906 ft | 429 kts | 285° |
| 2026-04-14 10:31 | 50.99307 | -3.26389 | 35967 ft | 431 kts | 285° |
| 2026-04-14 10:32 | 51.00697 | -3.35674 | 36012 ft | 432 kts | 285° |
| 2026-04-14 10:32 | 51.02058 | -3.44839 | 36018 ft | 426 kts | 285° |
| 2026-04-14 10:33 | 51.03408 | -3.53976 | 36014 ft | 424 kts | 285° |
| 2026-04-14 10:33 | 51.04748 | -3.63096 | 36006 ft | 423 kts | 285° |
| 2026-04-14 10:34 | 51.06741 | -3.76755 | 35987 ft | 423 kts | 285° |
| 2026-04-14 10:35 | 51.08064 | -3.85891 | 35993 ft | 424 kts | 285° |
| 2026-04-14 10:35 | 51.09374 | -3.94986 | 35979 ft | 426 kts | 284° |
| 2026-04-14 10:36 | 51.10688 | -4.04173 | 35981 ft | 426 kts | 284° |
| 2026-04-14 10:36 | 51.11999 | -4.13386 | 35968 ft | 427 kts | 284° |
| 2026-04-14 10:37 | 51.13303 | -4.22612 | 35975 ft | 427 kts | 284° |
| 2026-04-14 10:37 | 51.14591 | -4.31781 | 35951 ft | 427 kts | 284° |
| 2026-04-14 10:38 | 51.15880 | -4.41018 | 35952 ft | 427 kts | 284° |
| 2026-04-14 10:38 | 51.17162 | -4.50254 | 35945 ft | 427 kts | 284° |
| 2026-04-14 10:39 | 51.18429 | -4.59446 | 35949 ft | 427 kts | 284° |
| 2026-04-14 10:39 | 51.19698 | -4.68701 | 35936 ft | 427 kts | 284° |
| 2026-04-14 10:40 | 51.20957 | -4.77951 | 35947 ft | 427 kts | 283° |
| 2026-04-14 10:40 | 51.22208 | -4.87199 | 35930 ft | 427 kts | 283° |
| 2026-04-14 10:41 | 51.23452 | -4.96453 | 35941 ft | 426 kts | 283° |
| 2026-04-14 10:41 | 51.24681 | -5.05651 | 35931 ft | 426 kts | 283° |
| 2026-04-14 10:42 | 51.25910 | -5.14911 | 35938 ft | 427 kts | 283° |
| 2026-04-14 10:42 | 51.27133 | -5.24180 | 35930 ft | 427 kts | 283° |
| 2026-04-14 10:43 | 51.28348 | -5.33455 | 35928 ft | 427 kts | 283° |
| 2026-04-14 10:43 | 51.29548 | -5.42680 | 35918 ft | 427 kts | 283° |
| 2026-04-14 10:44 | 51.30749 | -5.51964 | 35909 ft | 427 kts | 283° |
| 2026-04-14 10:44 | 51.31943 | -5.61258 | 35910 ft | 427 kts | 283° |
| 2026-04-14 10:45 | 51.33128 | -5.70547 | 35911 ft | 427 kts | 283° |
| 2026-04-14 10:45 | 51.34299 | -5.79789 | 35904 ft | 427 kts | 282° |
| 2026-04-14 10:46 | 51.35471 | -5.89098 | 35905 ft | 427 kts | 282° |
| 2026-04-14 10:46 | 51.36636 | -5.98418 | 35897 ft | 427 kts | 282° |
| 2026-04-14 10:47 | 51.37794 | -6.07742 | 35905 ft | 428 kts | 282° |
| 2026-04-14 10:47 | 51.38938 | -6.17022 | 35893 ft | 428 kts | 282° |
| 2026-04-14 10:48 | 51.40082 | -6.26362 | 35893 ft | 428 kts | 282° |
| 2026-04-14 10:48 | 51.41219 | -6.35717 | 35890 ft | 428 kts | 282° |
| 2026-04-14 10:49 | 51.42348 | -6.45070 | 35890 ft | 428 kts | 282° |
| 2026-04-14 10:49 | 51.43463 | -6.54369 | 35880 ft | 428 kts | 282° |
| 2026-04-14 10:50 | 51.44577 | -6.63729 | 35883 ft | 428 kts | 282° |
| 2026-04-14 10:50 | 51.45685 | -6.73099 | 35873 ft | 428 kts | 282° |
| 2026-04-14 10:51 | 51.46784 | -6.82469 | 35877 ft | 428 kts | 282° |
| 2026-04-14 10:51 | 51.47877 | -6.91851 | 35868 ft | 428 kts | 282° |
| 2026-04-14 10:52 | 51.48956 | -7.01171 | 35877 ft | 428 kts | 282° |
| 2026-04-14 10:52 | 51.50189 | -7.10501 | 35866 ft | 427 kts | 287° |
| 2026-04-14 10:53 | 51.52173 | -7.19461 | 35865 ft | 426 kts | 291° |
| 2026-04-14 10:53 | 51.54243 | -7.28385 | 35857 ft | 426 kts | 290° |
| 2026-04-14 10:54 | 51.56282 | -7.37273 | 35859 ft | 427 kts | 290° |
| 2026-04-14 10:54 | 51.58322 | -7.46236 | 35851 ft | 427 kts | 290° |
| 2026-04-14 10:55 | 51.60352 | -7.55209 | 35852 ft | 427 kts | 290° |
| 2026-04-14 10:55 | 51.62375 | -7.64194 | 35843 ft | 427 kts | 290° |
| 2026-04-14 10:56 | 51.64379 | -7.73131 | 35842 ft | 427 kts | 290° |
| 2026-04-14 10:56 | 51.66390 | -7.82137 | 35833 ft | 427 kts | 290° |
| 2026-04-14 10:57 | 51.68394 | -7.91149 | 35827 ft | 427 kts | 290° |
| 2026-04-14 10:57 | 51.70390 | -8.00167 | 35811 ft | 427 kts | 290° |
| 2026-04-14 10:58 | 51.72382 | -8.09203 | 35813 ft | 428 kts | 290° |
| 2026-04-14 10:58 | 51.74353 | -8.18181 | 35801 ft | 428 kts | 290° |
| 2026-04-14 10:59 | 51.76331 | -8.27232 | 35809 ft | 428 kts | 290° |
| 2026-04-14 10:59 | 51.78302 | -8.36291 | 35804 ft | 427 kts | 290° |
| 2026-04-14 11:00 | 51.80263 | -8.45347 | 35812 ft | 428 kts | 290° |
| 2026-04-14 11:00 | 51.82207 | -8.54362 | 35798 ft | 427 kts | 290° |
| 2026-04-14 11:01 | 51.84156 | -8.63439 | 35813 ft | 427 kts | 290° |
| 2026-04-14 11:01 | 51.86099 | -8.72531 | 35801 ft | 427 kts | 290° |
| 2026-04-14 11:02 | 51.88035 | -8.81620 | 35805 ft | 427 kts | 290° |
| 2026-04-14 11:02 | 51.89950 | -8.90662 | 35790 ft | 427 kts | 290° |
| 2026-04-14 11:03 | 51.91869 | -8.99769 | 35782 ft | 427 kts | 290° |
| 2026-04-14 11:03 | 51.93779 | -9.08870 | 35781 ft | 427 kts | 289° |
| 2026-04-14 11:04 | 51.95683 | -9.17978 | 35763 ft | 426 kts | 289° |
| 2026-04-14 11:04 | 51.97578 | -9.27088 | 35764 ft | 426 kts | 289° |
| 2026-04-14 11:05 | 51.99453 | -9.36139 | 35750 ft | 426 kts | 289° |
| 2026-04-14 11:05 | 52.01334 | -9.45262 | 35749 ft | 427 kts | 289° |
| 2026-04-14 11:06 | 52.03210 | -9.54406 | 35745 ft | 427 kts | 289° |
| 2026-04-14 11:06 | 52.05064 | -9.63482 | 35745 ft | 426 kts | 289° |
| 2026-04-14 11:07 | 52.06924 | -9.72632 | 35750 ft | 426 kts | 289° |
| 2026-04-14 11:07 | 52.08776 | -9.81784 | 35751 ft | 426 kts | 288° |
| 2026-04-14 11:08 | 52.10622 | -9.90944 | 35745 ft | 426 kts | 288° |
| 2026-04-14 11:08 | 52.12447 | -10.00051 | 35749 ft | 426 kts | 288° |
| 2026-04-14 11:09 | 52.14278 | -10.09224 | 35757 ft | 426 kts | 288° |
| 2026-04-14 11:09 | 52.16101 | -10.18401 | 35729 ft | 426 kts | 288° |
| 2026-04-14 11:10 | 52.18821 | -10.32182 | 35738 ft | 426 kts | 288° |
| 2026-04-14 11:10 | 52.20616 | -10.41322 | 35722 ft | 426 kts | 288° |
| 2026-04-14 11:11 | 52.22413 | -10.50522 | 35734 ft | 425 kts | 287° |
| 2026-04-14 11:11 | 52.24205 | -10.59733 | 35731 ft | 427 kts | 287° |
| 2026-04-14 11:12 | 52.25999 | -10.69009 | 35710 ft | 429 kts | 287° |
| 2026-04-14 11:12 | 52.27783 | -10.78276 | 35702 ft | 427 kts | 287° |
| 2026-04-14 11:13 | 52.29541 | -10.87454 | 35706 ft | 425 kts | 287° |
| 2026-04-14 11:13 | 52.31295 | -10.96654 | 35698 ft | 423 kts | 287° |
| 2026-04-14 11:14 | 52.33036 | -11.05826 | 35703 ft | 422 kts | 287° |
| 2026-04-14 11:14 | 52.34763 | -11.14975 | 35689 ft | 421 kts | 286° |
| 2026-04-14 11:15 | 52.36471 | -11.24065 | 35707 ft | 421 kts | 286° |
| 2026-04-14 11:15 | 52.38184 | -11.33226 | 35684 ft | 421 kts | 286° |
| 2026-04-14 11:16 | 52.39893 | -11.42408 | 35685 ft | 422 kts | 286° |
| 2026-04-14 11:16 | 52.41598 | -11.51617 | 35677 ft | 423 kts | 285° |
| 2026-04-14 11:17 | 52.43285 | -11.60774 | 35681 ft | 423 kts | 285° |
| 2026-04-14 11:17 | 52.44978 | -11.70008 | 35661 ft | 423 kts | 285° |
| 2026-04-14 11:18 | 52.46664 | -11.79253 | 35665 ft | 423 kts | 285° |
| 2026-04-14 11:18 | 52.48344 | -11.88511 | 35650 ft | 424 kts | 285° |
| 2026-04-14 11:19 | 52.50006 | -11.97715 | 35657 ft | 424 kts | 285° |
| 2026-04-14 11:19 | 52.51673 | -12.06995 | 35644 ft | 424 kts | 285° |
| 2026-04-14 11:20 | 52.53332 | -12.16277 | 35659 ft | 424 kts | 284° |
| 2026-04-14 11:20 | 52.54990 | -12.25598 | 35632 ft | 426 kts | 284° |
| 2026-04-14 11:21 | 52.56631 | -12.34876 | 35634 ft | 426 kts | 284° |
| 2026-04-14 11:21 | 52.58276 | -12.44219 | 35629 ft | 425 kts | 284° |
| 2026-04-14 11:22 | 52.59911 | -12.53561 | 35631 ft | 425 kts | 284° |
| 2026-04-14 11:22 | 52.61540 | -12.62913 | 35619 ft | 425 kts | 284° |
| 2026-04-14 11:23 | 52.63149 | -12.72206 | 35623 ft | 425 kts | 283° |
| 2026-04-14 11:23 | 52.64762 | -12.81562 | 35606 ft | 425 kts | 283° |
| 2026-04-14 11:24 | 52.66367 | -12.90926 | 35612 ft | 424 kts | 283° |
| 2026-04-14 11:24 | 52.67963 | -13.00285 | 35602 ft | 424 kts | 283° |
| 2026-04-14 11:25 | 52.69552 | -13.09656 | 35602 ft | 424 kts | 283° |
| 2026-04-14 11:25 | 52.71122 | -13.18966 | 35591 ft | 424 kts | 282° |
| 2026-04-14 11:26 | 52.72697 | -13.28353 | 35596 ft | 425 kts | 282° |
| 2026-04-14 11:26 | 52.74266 | -13.37754 | 35587 ft | 425 kts | 282° |
| 2026-04-14 11:27 | 52.75829 | -13.47174 | 35591 ft | 426 kts | 282° |
| 2026-04-14 11:27 | 52.77375 | -13.56545 | 35578 ft | 426 kts | 282° |
| 2026-04-14 11:28 | 52.78926 | -13.65994 | 35580 ft | 426 kts | 282° |
| 2026-04-14 11:28 | 52.80471 | -13.75455 | 35568 ft | 427 kts | 281° |
| 2026-04-14 11:29 | 52.82009 | -13.84932 | 35574 ft | 427 kts | 281° |
| 2026-04-14 11:29 | 52.83530 | -13.94356 | 35560 ft | 427 kts | 281° |
| 2026-04-14 11:30 | 52.85053 | -14.03846 | 35563 ft | 427 kts | 281° |
| 2026-04-14 11:30 | 52.86569 | -14.13345 | 35555 ft | 427 kts | 281° |
| 2026-04-14 11:31 | 52.88078 | -14.22856 | 35557 ft | 427 kts | 280° |
| 2026-04-14 11:31 | 52.89569 | -14.32310 | 35543 ft | 428 kts | 280° |
| 2026-04-14 11:32 | 52.91066 | -14.41848 | 35548 ft | 428 kts | 280° |
| 2026-04-14 11:32 | 52.92556 | -14.51407 | 35540 ft | 429 kts | 279° |
| 2026-04-14 11:33 | 52.94045 | -14.61008 | 35540 ft | 430 kts | 279° |
| 2026-04-14 11:34 | 52.96265 | -14.75437 | 35534 ft | 431 kts | 279° |
| 2026-04-14 11:34 | 52.97732 | -14.85033 | 35527 ft | 432 kts | 279° |
| 2026-04-14 11:35 | 52.99087 | -14.94742 | 35519 ft | 429 kts | 273° |
| 2026-04-14 11:35 | 52.99442 | -15.04543 | 35523 ft | 424 kts | 266° |
| 2026-04-14 11:36 | 52.98940 | -15.14241 | 35522 ft | 421 kts | 259° |
| 2026-04-14 11:36 | 52.98147 | -15.23812 | 35511 ft | 422 kts | 259° |
| 2026-04-14 11:37 | 52.97339 | -15.33451 | 35509 ft | 422 kts | 259° |
| 2026-04-14 11:37 | 52.96548 | -15.43078 | 35468 ft | 418 kts | 255° |
| 2026-04-14 11:38 | 52.95773 | -15.52539 | 35502 ft | 412 kts | 254° |
| 2026-04-14 11:38 | 52.94994 | -15.61879 | 35503 ft | 412 kts | 254° |
| 2026-04-14 11:39 | 52.94204 | -15.71281 | 35506 ft | 412 kts | 254° |
| 2026-04-14 11:39 | 52.93405 | -15.80714 | 35506 ft | 414 kts | 254° |
| 2026-04-14 11:40 | 52.92597 | -15.90165 | 35498 ft | 415 kts | 254° |
| 2026-04-14 11:40 | 52.91779 | -15.99651 | 35498 ft | 417 kts | 254° |
| 2026-04-14 11:41 | 52.90955 | -16.09108 | 35498 ft | 418 kts | 253° |
| 2026-04-14 11:41 | 52.90115 | -16.18665 | 35496 ft | 420 kts | 253° |
| 2026-04-14 11:42 | 52.89266 | -16.28243 | 35494 ft | 421 kts | 253° |
| 2026-04-14 11:42 | 52.88405 | -16.37849 | 35492 ft | 422 kts | 253° |
| 2026-04-14 11:43 | 52.87536 | -16.47475 | 35499 ft | 423 kts | 253° |
| 2026-04-14 11:43 | 52.86663 | -16.57042 | 35490 ft | 424 kts | 253° |